sensor_id;sensor_type;location;lat;lon;timestamp;P1;durP1;ratioP1;P2;durP2;ratioP2
34200;SDS011;20469;55.638;37.670;2022-07-23T00:00:27;9.18;;;3.78;;
34200;SDS011;20469;55.638;37.670;2022-07-23T00:02:59;12.38;;;4.10;;
34200;SDS011;20469;55.638;37.670;2022-07-23T00:05:26;10.35;;;4.05;;
34200;SDS011;20469;55.638;37.670;2022-07-23T00:07:53;10.35;;;4.03;;
34200;SDS011;20469;55.638;37.670;2022-07-23T00:10:21;8.00;;;3.67;;
34200;SDS011;20469;55.638;37.670;2022-07-23T00:12:48;11.15;;;4.20;;
34200;SDS011;20469;55.638;37.670;2022-07-23T00:15:17;10.45;;;4.05;;
34200;SDS011;20469;55.638;37.670;2022-07-23T00:17:45;7.78;;;3.75;;
34200;SDS011;20469;55.638;37.670;2022-07-23T00:20:13;8.35;;;4.13;;
34200;SDS011;20469;55.638;37.670;2022-07-23T00:22:47;12.13;;;4.30;;
34200;SDS011;20469;55.638;37.670;2022-07-23T00:25:16;14.85;;;4.50;;
34200;SDS011;20469;55.638;37.670;2022-07-23T00:27:58;8.55;;;4.38;;
34200;SDS011;20469;55.638;37.670;2022-07-23T00:30:27;8.65;;;3.63;;
34200;SDS011;20469;55.638;37.670;2022-07-23T00:32:59;9.80;;;4.47;;
34200;SDS011;20469;55.638;37.670;2022-07-23T00:35:36;12.98;;;4.68;;
34200;SDS011;20469;55.638;37.670;2022-07-23T00:38:10;16.63;;;4.30;;
34200;SDS011;20469;55.638;37.670;2022-07-23T00:40:38;12.85;;;5.35;;
34200;SDS011;20469;55.638;37.670;2022-07-23T00:43:06;23.80;;;8.75;;
34200;SDS011;20469;55.638;37.670;2022-07-23T00:45:34;14.57;;;5.28;;
34200;SDS011;20469;55.638;37.670;2022-07-23T00:48:01;15.98;;;5.85;;
34200;SDS011;20469;55.638;37.670;2022-07-23T00:50:29;19.05;;;5.63;;
34200;SDS011;20469;55.638;37.670;2022-07-23T00:52:57;13.48;;;4.95;;
34200;SDS011;20469;55.638;37.670;2022-07-23T00:55:24;10.73;;;4.47;;
34200;SDS011;20469;55.638;37.670;2022-07-23T00:57:51;8.40;;;4.07;;
34200;SDS011;20469;55.638;37.670;2022-07-23T01:00:20;8.15;;;4.25;;
34200;SDS011;20469;55.638;37.670;2022-07-23T01:02:57;10.18;;;4.20;;
34200;SDS011;20469;55.638;37.670;2022-07-23T01:05:25;11.93;;;4.82;;
34200;SDS011;20469;55.638;37.670;2022-07-23T01:07:52;13.02;;;5.10;;
34200;SDS011;20469;55.638;37.670;2022-07-23T01:10:21;15.80;;;4.70;;
34200;SDS011;20469;55.638;37.670;2022-07-23T01:13:06;9.00;;;3.90;;
34200;SDS011;20469;55.638;37.670;2022-07-23T01:15:35;15.52;;;4.20;;
34200;SDS011;20469;55.638;37.670;2022-07-23T01:18:05;11.25;;;4.50;;
34200;SDS011;20469;55.638;37.670;2022-07-23T01:20:33;12.05;;;4.30;;
34200;SDS011;20469;55.638;37.670;2022-07-23T01:23:01;9.35;;;5.63;;
34200;SDS011;20469;55.638;37.670;2022-07-23T01:25:28;9.48;;;4.55;;
34200;SDS011;20469;55.638;37.670;2022-07-23T01:27:56;11.07;;;4.55;;
34200;SDS011;20469;55.638;37.670;2022-07-23T01:30:23;12.70;;;5.13;;
34200;SDS011;20469;55.638;37.670;2022-07-23T01:32:51;10.10;;;4.50;;
34200;SDS011;20469;55.638;37.670;2022-07-23T01:35:18;11.48;;;4.50;;
34200;SDS011;20469;55.638;37.670;2022-07-23T01:37:45;8.95;;;4.35;;
34200;SDS011;20469;55.638;37.670;2022-07-23T01:40:12;11.02;;;4.70;;
34200;SDS011;20469;55.638;37.670;2022-07-23T01:42:39;8.95;;;4.13;;
34200;SDS011;20469;55.638;37.670;2022-07-23T01:45:07;11.25;;;4.65;;
34200;SDS011;20469;55.638;37.670;2022-07-23T01:47:35;12.80;;;4.35;;
34200;SDS011;20469;55.638;37.670;2022-07-23T01:50:02;8.65;;;4.22;;
34200;SDS011;20469;55.638;37.670;2022-07-23T01:52:30;11.40;;;4.72;;
34200;SDS011;20469;55.638;37.670;2022-07-23T01:54:57;8.85;;;4.32;;
34200;SDS011;20469;55.638;37.670;2022-07-23T01:57:24;12.25;;;4.70;;
34200;SDS011;20469;55.638;37.670;2022-07-23T01:59:54;11.50;;;4.15;;
34200;SDS011;20469;55.638;37.670;2022-07-23T02:02:21;8.60;;;4.05;;
34200;SDS011;20469;55.638;37.670;2022-07-23T02:04:48;9.43;;;3.88;;
34200;SDS011;20469;55.638;37.670;2022-07-23T02:07:17;10.95;;;4.55;;
34200;SDS011;20469;55.638;37.670;2022-07-23T02:09:44;15.30;;;4.63;;
34200;SDS011;20469;55.638;37.670;2022-07-23T02:12:11;11.02;;;4.13;;
34200;SDS011;20469;55.638;37.670;2022-07-23T02:14:39;10.73;;;4.18;;
34200;SDS011;20469;55.638;37.670;2022-07-23T02:17:07;8.07;;;3.70;;
34200;SDS011;20469;55.638;37.670;2022-07-23T02:19:34;12.57;;;3.90;;
34200;SDS011;20469;55.638;37.670;2022-07-23T02:22:01;10.93;;;4.40;;
34200;SDS011;20469;55.638;37.670;2022-07-23T02:24:29;7.60;;;4.30;;
34200;SDS011;20469;55.638;37.670;2022-07-23T02:26:56;8.38;;;4.03;;
34200;SDS011;20469;55.638;37.670;2022-07-23T02:29:23;11.50;;;4.25;;
34200;SDS011;20469;55.638;37.670;2022-07-23T02:31:50;8.70;;;3.72;;
34200;SDS011;20469;55.638;37.670;2022-07-23T02:34:18;9.18;;;3.97;;
34200;SDS011;20469;55.638;37.670;2022-07-23T02:36:45;9.10;;;4.38;;
34200;SDS011;20469;55.638;37.670;2022-07-23T02:39:12;9.02;;;4.20;;
34200;SDS011;20469;55.638;37.670;2022-07-23T02:41:40;10.05;;;4.45;;
34200;SDS011;20469;55.638;37.670;2022-07-23T02:44:08;7.97;;;4.60;;
34200;SDS011;20469;55.638;37.670;2022-07-23T02:46:35;8.77;;;4.65;;
34200;SDS011;20469;55.638;37.670;2022-07-23T02:49:02;8.05;;;4.38;;
34200;SDS011;20469;55.638;37.670;2022-07-23T02:51:32;10.70;;;4.65;;
34200;SDS011;20469;55.638;37.670;2022-07-23T02:53:59;10.55;;;4.72;;
34200;SDS011;20469;55.638;37.670;2022-07-23T02:56:26;7.10;;;4.20;;
34200;SDS011;20469;55.638;37.670;2022-07-23T02:58:53;9.05;;;4.63;;
34200;SDS011;20469;55.638;37.670;2022-07-23T03:01:20;11.93;;;4.75;;
34200;SDS011;20469;55.638;37.670;2022-07-23T03:03:48;9.90;;;5.00;;
34200;SDS011;20469;55.638;37.670;2022-07-23T03:06:15;10.35;;;4.68;;
34200;SDS011;20469;55.638;37.670;2022-07-23T03:08:42;7.80;;;4.47;;
34200;SDS011;20469;55.638;37.670;2022-07-23T03:11:10;10.77;;;5.13;;
34200;SDS011;20469;55.638;37.670;2022-07-23T03:13:37;10.82;;;5.40;;
34200;SDS011;20469;55.638;37.670;2022-07-23T03:16:06;11.40;;;5.22;;
34200;SDS011;20469;55.638;37.670;2022-07-23T03:18:34;10.52;;;4.70;;
34200;SDS011;20469;55.638;37.670;2022-07-23T03:21:06;9.35;;;4.55;;
34200;SDS011;20469;55.638;37.670;2022-07-23T03:23:34;13.85;;;5.00;;
34200;SDS011;20469;55.638;37.670;2022-07-23T03:26:01;10.45;;;5.10;;
34200;SDS011;20469;55.638;37.670;2022-07-23T03:28:29;13.60;;;5.20;;
34200;SDS011;20469;55.638;37.670;2022-07-23T03:30:56;11.68;;;5.20;;
34200;SDS011;20469;55.638;37.670;2022-07-23T03:33:24;10.98;;;5.03;;
34200;SDS011;20469;55.638;37.670;2022-07-23T03:35:51;11.48;;;5.45;;
34200;SDS011;20469;55.638;37.670;2022-07-23T03:38:18;12.15;;;5.28;;
34200;SDS011;20469;55.638;37.670;2022-07-23T03:40:46;8.98;;;5.20;;
34200;SDS011;20469;55.638;37.670;2022-07-23T03:43:13;13.02;;;6.10;;
34200;SDS011;20469;55.638;37.670;2022-07-23T03:45:40;8.10;;;5.03;;
34200;SDS011;20469;55.638;37.670;2022-07-23T03:48:07;9.43;;;4.78;;
34200;SDS011;20469;55.638;37.670;2022-07-23T03:50:34;12.20;;;5.20;;
34200;SDS011;20469;55.638;37.670;2022-07-23T03:53:04;9.60;;;5.00;;
34200;SDS011;20469;55.638;37.670;2022-07-23T03:55:31;10.98;;;5.38;;
34200;SDS011;20469;55.638;37.670;2022-07-23T03:57:58;9.35;;;5.25;;
34200;SDS011;20469;55.638;37.670;2022-07-23T04:00:25;10.90;;;4.53;;
34200;SDS011;20469;55.638;37.670;2022-07-23T04:02:52;8.20;;;5.00;;
34200;SDS011;20469;55.638;37.670;2022-07-23T04:05:20;8.07;;;5.05;;
34200;SDS011;20469;55.638;37.670;2022-07-23T04:07:47;8.38;;;4.78;;
34200;SDS011;20469;55.638;37.670;2022-07-23T04:10:14;10.43;;;5.05;;
34200;SDS011;20469;55.638;37.670;2022-07-23T04:12:42;10.20;;;4.60;;
34200;SDS011;20469;55.638;37.670;2022-07-23T04:15:09;10.43;;;5.20;;
34200;SDS011;20469;55.638;37.670;2022-07-23T04:17:37;9.27;;;4.82;;
34200;SDS011;20469;55.638;37.670;2022-07-23T04:20:04;7.97;;;4.78;;
34200;SDS011;20469;55.638;37.670;2022-07-23T04:22:32;9.80;;;5.25;;
34200;SDS011;20469;55.638;37.670;2022-07-23T04:24:59;12.25;;;5.43;;
34200;SDS011;20469;55.638;37.670;2022-07-23T04:27:26;8.85;;;5.15;;
34200;SDS011;20469;55.638;37.670;2022-07-23T04:29:53;10.05;;;4.90;;
34200;SDS011;20469;55.638;37.670;2022-07-23T04:32:21;11.55;;;5.47;;
34200;SDS011;20469;55.638;37.670;2022-07-23T04:34:48;12.43;;;5.65;;
34200;SDS011;20469;55.638;37.670;2022-07-23T04:37:15;9.88;;;5.05;;
34200;SDS011;20469;55.638;37.670;2022-07-23T04:39:42;11.43;;;5.32;;
34200;SDS011;20469;55.638;37.670;2022-07-23T04:42:11;10.55;;;5.57;;
34200;SDS011;20469;55.638;37.670;2022-07-23T04:44:38;11.15;;;4.97;;
34200;SDS011;20469;55.638;37.670;2022-07-23T04:47:05;8.70;;;5.45;;
34200;SDS011;20469;55.638;37.670;2022-07-23T04:49:33;8.00;;;5.40;;
34200;SDS011;20469;55.638;37.670;2022-07-23T04:52:00;12.25;;;5.82;;
34200;SDS011;20469;55.638;37.670;2022-07-23T04:54:27;11.30;;;5.63;;
34200;SDS011;20469;55.638;37.670;2022-07-23T04:56:54;10.05;;;4.85;;
34200;SDS011;20469;55.638;37.670;2022-07-23T04:59:21;10.68;;;5.70;;
34200;SDS011;20469;55.638;37.670;2022-07-23T05:01:49;10.35;;;5.82;;
34200;SDS011;20469;55.638;37.670;2022-07-23T05:04:16;11.48;;;6.22;;
34200;SDS011;20469;55.638;37.670;2022-07-23T05:06:44;14.52;;;5.35;;
34200;SDS011;20469;55.638;37.670;2022-07-23T05:09:11;10.75;;;5.80;;
34200;SDS011;20469;55.638;37.670;2022-07-23T05:11:38;11.68;;;5.25;;
34200;SDS011;20469;55.638;37.670;2022-07-23T05:14:07;11.77;;;5.97;;
34200;SDS011;20469;55.638;37.670;2022-07-23T05:16:35;10.95;;;5.75;;
34200;SDS011;20469;55.638;37.670;2022-07-23T05:19:02;10.55;;;6.90;;
34200;SDS011;20469;55.638;37.670;2022-07-23T05:21:30;9.43;;;5.45;;
34200;SDS011;20469;55.638;37.670;2022-07-23T05:23:58;13.43;;;5.97;;
34200;SDS011;20469;55.638;37.670;2022-07-23T05:26:25;8.93;;;5.63;;
34200;SDS011;20469;55.638;37.670;2022-07-23T05:28:53;11.73;;;5.72;;
34200;SDS011;20469;55.638;37.670;2022-07-23T05:31:20;10.02;;;5.38;;
34200;SDS011;20469;55.638;37.670;2022-07-23T05:33:48;10.68;;;5.40;;
34200;SDS011;20469;55.638;37.670;2022-07-23T05:36:15;9.18;;;5.25;;
34200;SDS011;20469;55.638;37.670;2022-07-23T05:38:42;11.00;;;5.78;;
34200;SDS011;20469;55.638;37.670;2022-07-23T05:41:09;8.77;;;5.38;;
34200;SDS011;20469;55.638;37.670;2022-07-23T05:43:37;8.50;;;5.22;;
34200;SDS011;20469;55.638;37.670;2022-07-23T05:46:04;8.45;;;5.43;;
34200;SDS011;20469;55.638;37.670;2022-07-23T05:48:31;13.65;;;5.45;;
34200;SDS011;20469;55.638;37.670;2022-07-23T05:50:59;9.30;;;5.50;;
34200;SDS011;20469;55.638;37.670;2022-07-23T05:53:27;7.80;;;5.22;;
34200;SDS011;20469;55.638;37.670;2022-07-23T05:55:55;9.57;;;5.18;;
34200;SDS011;20469;55.638;37.670;2022-07-23T05:58:22;7.35;;;5.45;;
34200;SDS011;20469;55.638;37.670;2022-07-23T06:00:49;8.10;;;5.13;;
34200;SDS011;20469;55.638;37.670;2022-07-23T06:03:16;8.50;;;5.20;;
34200;SDS011;20469;55.638;37.670;2022-07-23T06:05:44;9.95;;;5.15;;
34200;SDS011;20469;55.638;37.670;2022-07-23T06:08:11;7.07;;;5.10;;
34200;SDS011;20469;55.638;37.670;2022-07-23T06:10:39;9.60;;;5.43;;
34200;SDS011;20469;55.638;37.670;2022-07-23T06:13:06;9.27;;;5.28;;
34200;SDS011;20469;55.638;37.670;2022-07-23T06:15:34;11.43;;;4.68;;
34200;SDS011;20469;55.638;37.670;2022-07-23T06:18:01;6.05;;;4.70;;
34200;SDS011;20469;55.638;37.670;2022-07-23T06:20:28;8.20;;;5.13;;
34200;SDS011;20469;55.638;37.670;2022-07-23T06:22:56;8.13;;;5.13;;
34200;SDS011;20469;55.638;37.670;2022-07-23T06:25:23;8.13;;;4.85;;
34200;SDS011;20469;55.638;37.670;2022-07-23T06:27:50;10.02;;;5.25;;
34200;SDS011;20469;55.638;37.670;2022-07-23T06:30:18;9.90;;;5.30;;
34200;SDS011;20469;55.638;37.670;2022-07-23T06:32:46;10.10;;;4.57;;
34200;SDS011;20469;55.638;37.670;2022-07-23T06:35:15;10.52;;;5.28;;
34200;SDS011;20469;55.638;37.670;2022-07-23T06:37:44;8.93;;;5.13;;
34200;SDS011;20469;55.638;37.670;2022-07-23T06:40:13;12.45;;;5.28;;
34200;SDS011;20469;55.638;37.670;2022-07-23T06:42:41;10.32;;;5.40;;
34200;SDS011;20469;55.638;37.670;2022-07-23T06:45:08;10.02;;;5.00;;
34200;SDS011;20469;55.638;37.670;2022-07-23T06:47:35;9.35;;;5.38;;
34200;SDS011;20469;55.638;37.670;2022-07-23T06:50:03;8.35;;;5.28;;
34200;SDS011;20469;55.638;37.670;2022-07-23T06:52:32;8.52;;;4.82;;
34200;SDS011;20469;55.638;37.670;2022-07-23T06:55:02;10.95;;;5.45;;
34200;SDS011;20469;55.638;37.670;2022-07-23T06:57:29;8.00;;;4.90;;
34200;SDS011;20469;55.638;37.670;2022-07-23T07:00:00;9.95;;;4.97;;
34200;SDS011;20469;55.638;37.670;2022-07-23T07:02:29;9.13;;;4.72;;
34200;SDS011;20469;55.638;37.670;2022-07-23T07:04:56;7.70;;;4.97;;
34200;SDS011;20469;55.638;37.670;2022-07-23T07:07:30;7.15;;;5.13;;
34200;SDS011;20469;55.638;37.670;2022-07-23T07:09:57;8.68;;;5.53;;
34200;SDS011;20469;55.638;37.670;2022-07-23T07:12:25;9.10;;;5.10;;
34200;SDS011;20469;55.638;37.670;2022-07-23T07:14:52;7.93;;;4.90;;
34200;SDS011;20469;55.638;37.670;2022-07-23T07:17:20;7.25;;;4.47;;
34200;SDS011;20469;55.638;37.670;2022-07-23T07:19:47;10.95;;;5.60;;
34200;SDS011;20469;55.638;37.670;2022-07-23T07:22:14;6.72;;;4.85;;
34200;SDS011;20469;55.638;37.670;2022-07-23T07:24:41;6.47;;;4.93;;
34200;SDS011;20469;55.638;37.670;2022-07-23T07:27:09;6.93;;;5.18;;
34200;SDS011;20469;55.638;37.670;2022-07-23T07:29:36;9.23;;;5.40;;
34200;SDS011;20469;55.638;37.670;2022-07-23T07:32:03;6.47;;;5.10;;
34200;SDS011;20469;55.638;37.670;2022-07-23T07:34:31;7.15;;;6.00;;
34200;SDS011;20469;55.638;37.670;2022-07-23T07:36:59;8.70;;;5.93;;
34200;SDS011;20469;55.638;37.670;2022-07-23T07:39:26;6.60;;;5.15;;
34200;SDS011;20469;55.638;37.670;2022-07-23T07:41:54;8.07;;;5.20;;
34200;SDS011;20469;55.638;37.670;2022-07-23T07:44:22;7.18;;;5.45;;
34200;SDS011;20469;55.638;37.670;2022-07-23T07:46:50;8.63;;;5.53;;
34200;SDS011;20469;55.638;37.670;2022-07-23T07:49:17;6.88;;;5.50;;
34200;SDS011;20469;55.638;37.670;2022-07-23T07:51:47;11.38;;;5.72;;
34200;SDS011;20469;55.638;37.670;2022-07-23T07:54:15;9.80;;;5.75;;
34200;SDS011;20469;55.638;37.670;2022-07-23T07:56:42;7.05;;;5.80;;
34200;SDS011;20469;55.638;37.670;2022-07-23T07:59:09;10.18;;;5.90;;
34200;SDS011;20469;55.638;37.670;2022-07-23T08:04:24;11.73;;;5.82;;
34200;SDS011;20469;55.638;37.670;2022-07-23T08:06:51;7.13;;;5.95;;
34200;SDS011;20469;55.638;37.670;2022-07-23T08:09:19;8.07;;;5.35;;
34200;SDS011;20469;55.638;37.670;2022-07-23T08:11:46;8.80;;;5.40;;
34200;SDS011;20469;55.638;37.670;2022-07-23T08:14:13;6.55;;;5.20;;
34200;SDS011;20469;55.638;37.670;2022-07-23T08:16:41;6.78;;;5.28;;
34200;SDS011;20469;55.638;37.670;2022-07-23T08:19:28;7.43;;;5.18;;
34200;SDS011;20469;55.638;37.670;2022-07-23T08:21:55;7.50;;;5.55;;
34200;SDS011;20469;55.638;37.670;2022-07-23T08:24:22;6.93;;;5.55;;
34200;SDS011;20469;55.638;37.670;2022-07-23T08:26:50;10.88;;;5.82;;
34200;SDS011;20469;55.638;37.670;2022-07-23T08:29:17;7.78;;;5.40;;
34200;SDS011;20469;55.638;37.670;2022-07-23T08:31:50;7.88;;;5.55;;
34200;SDS011;20469;55.638;37.670;2022-07-23T08:34:18;6.82;;;5.18;;
34200;SDS011;20469;55.638;37.670;2022-07-23T08:36:45;6.10;;;5.50;;
34200;SDS011;20469;55.638;37.670;2022-07-23T08:39:12;7.78;;;5.47;;
34200;SDS011;20469;55.638;37.670;2022-07-23T08:41:40;7.15;;;5.32;;
34200;SDS011;20469;55.638;37.670;2022-07-23T08:44:08;6.75;;;5.50;;
34200;SDS011;20469;55.638;37.670;2022-07-23T08:46:36;9.25;;;5.80;;
34200;SDS011;20469;55.638;37.670;2022-07-23T08:49:09;9.23;;;5.97;;
34200;SDS011;20469;55.638;37.670;2022-07-23T08:51:37;6.07;;;5.47;;
34200;SDS011;20469;55.638;37.670;2022-07-23T08:54:06;6.68;;;5.97;;
34200;SDS011;20469;55.638;37.670;2022-07-23T08:56:33;7.15;;;5.40;;
34200;SDS011;20469;55.638;37.670;2022-07-23T08:59:01;5.63;;;5.13;;
34200;SDS011;20469;55.638;37.670;2022-07-23T09:01:29;7.85;;;5.72;;
34200;SDS011;20469;55.638;37.670;2022-07-23T09:04:13;7.10;;;5.47;;
34200;SDS011;20469;55.638;37.670;2022-07-23T09:06:40;6.32;;;5.65;;
34200;SDS011;20469;55.638;37.670;2022-07-23T09:09:18;6.25;;;5.65;;
34200;SDS011;20469;55.638;37.670;2022-07-23T09:11:47;7.57;;;5.95;;
34200;SDS011;20469;55.638;37.670;2022-07-23T09:14:14;6.43;;;5.82;;
34200;SDS011;20469;55.638;37.670;2022-07-23T09:16:42;7.78;;;5.60;;
34200;SDS011;20469;55.638;37.670;2022-07-23T09:19:10;8.20;;;5.60;;
34200;SDS011;20469;55.638;37.670;2022-07-23T09:21:39;7.45;;;6.35;;
34200;SDS011;20469;55.638;37.670;2022-07-23T09:24:07;6.28;;;5.50;;
34200;SDS011;20469;55.638;37.670;2022-07-23T09:29:16;7.30;;;5.80;;
34200;SDS011;20469;55.638;37.670;2022-07-23T09:31:45;7.47;;;6.40;;
34200;SDS011;20469;55.638;37.670;2022-07-23T09:34:23;7.45;;;5.70;;
34200;SDS011;20469;55.638;37.670;2022-07-23T09:36:55;7.40;;;6.20;;
34200;SDS011;20469;55.638;37.670;2022-07-23T09:39:31;6.68;;;6.07;;
34200;SDS011;20469;55.638;37.670;2022-07-23T09:42:16;7.18;;;6.30;;
34200;SDS011;20469;55.638;37.670;2022-07-23T09:44:45;9.02;;;5.50;;
34200;SDS011;20469;55.638;37.670;2022-07-23T09:47:14;6.88;;;6.15;;
34200;SDS011;20469;55.638;37.670;2022-07-23T09:52:43;7.82;;;5.97;;
34200;SDS011;20469;55.638;37.670;2022-07-23T09:55:18;7.93;;;6.22;;
34200;SDS011;20469;55.638;37.670;2022-07-23T09:57:46;7.20;;;6.28;;
34200;SDS011;20469;55.638;37.670;2022-07-23T10:00:22;9.45;;;6.45;;
34200;SDS011;20469;55.638;37.670;2022-07-23T10:02:50;8.63;;;5.95;;
34200;SDS011;20469;55.638;37.670;2022-07-23T10:05:19;8.50;;;6.50;;
34200;SDS011;20469;55.638;37.670;2022-07-23T10:07:47;8.45;;;6.30;;
34200;SDS011;20469;55.638;37.670;2022-07-23T10:10:18;9.68;;;6.07;;
34200;SDS011;20469;55.638;37.670;2022-07-23T10:12:49;7.22;;;6.10;;
34200;SDS011;20469;55.638;37.670;2022-07-23T10:15:35;7.95;;;6.18;;
34200;SDS011;20469;55.638;37.670;2022-07-23T10:18:03;7.80;;;6.13;;
34200;SDS011;20469;55.638;37.670;2022-07-23T10:20:30;8.95;;;6.55;;
34200;SDS011;20469;55.638;37.670;2022-07-23T10:23:00;8.60;;;5.90;;
34200;SDS011;20469;55.638;37.670;2022-07-23T10:31:14;6.90;;;6.20;;
34200;SDS011;20469;55.638;37.670;2022-07-23T10:34:21;6.65;;;5.88;;
34200;SDS011;20469;55.638;37.670;2022-07-23T10:37:01;8.80;;;6.07;;
34200;SDS011;20469;55.638;37.670;2022-07-23T10:39:37;7.53;;;5.63;;
34200;SDS011;20469;55.638;37.670;2022-07-23T10:42:11;6.90;;;6.03;;
34200;SDS011;20469;55.638;37.670;2022-07-23T10:44:44;6.43;;;5.70;;
34200;SDS011;20469;55.638;37.670;2022-07-23T10:47:25;6.88;;;6.10;;
34200;SDS011;20469;55.638;37.670;2022-07-23T10:58:03;7.28;;;6.10;;
34200;SDS011;20469;55.638;37.670;2022-07-23T11:00:32;7.00;;;6.30;;
34200;SDS011;20469;55.638;37.670;2022-07-23T11:03:02;6.95;;;6.25;;
34200;SDS011;20469;55.638;37.670;2022-07-23T11:10:44;8.80;;;5.72;;
34200;SDS011;20469;55.638;37.670;2022-07-23T11:21:50;8.45;;;6.22;;
34200;SDS011;20469;55.638;37.670;2022-07-23T11:24:04;7.38;;;6.18;;
34200;SDS011;20469;55.638;37.670;2022-07-23T11:26:46;7.63;;;6.55;;
34200;SDS011;20469;55.638;37.670;2022-07-23T11:32:04;7.28;;;6.47;;
34200;SDS011;20469;55.638;37.670;2022-07-23T11:34:45;10.30;;;7.05;;
34200;SDS011;20469;55.638;37.670;2022-07-23T11:37:31;11.38;;;7.53;;
34200;SDS011;20469;55.638;37.670;2022-07-23T11:40:08;8.63;;;6.75;;
34200;SDS011;20469;55.638;37.670;2022-07-23T11:42:38;7.38;;;6.00;;
34200;SDS011;20469;55.638;37.670;2022-07-23T11:45:07;7.22;;;6.00;;
34200;SDS011;20469;55.638;37.670;2022-07-23T11:47:35;8.30;;;6.95;;
34200;SDS011;20469;55.638;37.670;2022-07-23T11:50:03;8.25;;;6.75;;
34200;SDS011;20469;55.638;37.670;2022-07-23T11:52:33;9.45;;;6.95;;
34200;SDS011;20469;55.638;37.670;2022-07-23T11:55:04;8.05;;;6.75;;
34200;SDS011;20469;55.638;37.670;2022-07-23T11:57:35;8.73;;;6.75;;
34200;SDS011;20469;55.638;37.670;2022-07-23T12:00:08;11.10;;;6.80;;
34200;SDS011;20469;55.638;37.670;2022-07-23T12:02:39;11.27;;;6.88;;
34200;SDS011;20469;55.638;37.670;2022-07-23T12:05:08;10.98;;;6.70;;
34200;SDS011;20469;55.638;37.670;2022-07-23T12:07:40;10.80;;;6.80;;
34200;SDS011;20469;55.638;37.670;2022-07-23T12:10:20;8.02;;;6.78;;
34200;SDS011;20469;55.638;37.670;2022-07-23T12:13:09;10.55;;;6.70;;
34200;SDS011;20469;55.638;37.670;2022-07-23T12:15:39;8.25;;;6.43;;
34200;SDS011;20469;55.638;37.670;2022-07-23T12:18:09;9.60;;;6.47;;
34200;SDS011;20469;55.638;37.670;2022-07-23T12:20:39;9.48;;;6.63;;
34200;SDS011;20469;55.638;37.670;2022-07-23T12:23:12;9.40;;;6.30;;
34200;SDS011;20469;55.638;37.670;2022-07-23T12:25:47;8.07;;;6.45;;
34200;SDS011;20469;55.638;37.670;2022-07-23T12:30:45;8.60;;;5.88;;
34200;SDS011;20469;55.638;37.670;2022-07-23T12:33:28;8.15;;;6.60;;
34200;SDS011;20469;55.638;37.670;2022-07-23T12:36:01;7.40;;;6.10;;
34200;SDS011;20469;55.638;37.670;2022-07-23T12:38:41;8.90;;;6.68;;
34200;SDS011;20469;55.638;37.670;2022-07-23T12:41:19;6.88;;;5.97;;
34200;SDS011;20469;55.638;37.670;2022-07-23T12:43:46;14.60;;;6.45;;
34200;SDS011;20469;55.638;37.670;2022-07-23T12:46:15;7.30;;;6.13;;
34200;SDS011;20469;55.638;37.670;2022-07-23T12:51:27;10.18;;;6.28;;
34200;SDS011;20469;55.638;37.670;2022-07-23T12:53:58;6.95;;;6.35;;
34200;SDS011;20469;55.638;37.670;2022-07-23T13:01:31;8.80;;;6.43;;
34200;SDS011;20469;55.638;37.670;2022-07-23T13:06:43;9.02;;;6.35;;
34200;SDS011;20469;55.638;37.670;2022-07-23T13:09:23;9.70;;;6.30;;
34200;SDS011;20469;55.638;37.670;2022-07-23T13:11:52;9.02;;;6.47;;
34200;SDS011;20469;55.638;37.670;2022-07-23T13:14:22;8.25;;;6.72;;
34200;SDS011;20469;55.638;37.670;2022-07-23T13:16:54;7.45;;;6.25;;
34200;SDS011;20469;55.638;37.670;2022-07-23T13:19:27;8.93;;;6.50;;
34200;SDS011;20469;55.638;37.670;2022-07-23T13:21:54;9.27;;;6.05;;
34200;SDS011;20469;55.638;37.670;2022-07-23T13:24:21;8.90;;;6.15;;
34200;SDS011;20469;55.638;37.670;2022-07-23T13:26:49;7.55;;;6.53;;
34200;SDS011;20469;55.638;37.670;2022-07-23T13:29:18;6.50;;;5.88;;
34200;SDS011;20469;55.638;37.670;2022-07-23T13:31:45;7.20;;;6.50;;
34200;SDS011;20469;55.638;37.670;2022-07-23T13:34:14;8.73;;;6.78;;
34200;SDS011;20469;55.638;37.670;2022-07-23T13:36:42;9.60;;;6.32;;
34200;SDS011;20469;55.638;37.670;2022-07-23T13:39:10;9.15;;;6.63;;
34200;SDS011;20469;55.638;37.670;2022-07-23T13:41:37;7.15;;;6.45;;
34200;SDS011;20469;55.638;37.670;2022-07-23T13:44:15;9.30;;;6.22;;
34200;SDS011;20469;55.638;37.670;2022-07-23T13:46:42;7.85;;;5.68;;
34200;SDS011;20469;55.638;37.670;2022-07-23T13:49:10;10.15;;;6.50;;
34200;SDS011;20469;55.638;37.670;2022-07-23T13:51:39;6.78;;;6.07;;
34200;SDS011;20469;55.638;37.670;2022-07-23T13:54:07;6.65;;;5.70;;
34200;SDS011;20469;55.638;37.670;2022-07-23T13:56:35;8.25;;;6.03;;
34200;SDS011;20469;55.638;37.670;2022-07-23T13:59:03;6.65;;;5.65;;
34200;SDS011;20469;55.638;37.670;2022-07-23T14:01:32;6.13;;;5.53;;
34200;SDS011;20469;55.638;37.670;2022-07-23T14:04:15;7.82;;;5.70;;
34200;SDS011;20469;55.638;37.670;2022-07-23T14:06:44;8.13;;;6.03;;
34200;SDS011;20469;55.638;37.670;2022-07-23T14:09:18;7.32;;;5.70;;
34200;SDS011;20469;55.638;37.670;2022-07-23T14:11:45;8.05;;;5.47;;
34200;SDS011;20469;55.638;37.670;2022-07-23T14:14:13;6.53;;;5.30;;
34200;SDS011;20469;55.638;37.670;2022-07-23T14:16:40;5.93;;;5.30;;
34200;SDS011;20469;55.638;37.670;2022-07-23T14:19:08;9.70;;;6.15;;
34200;SDS011;20469;55.638;37.670;2022-07-23T14:21:35;7.93;;;5.53;;
34200;SDS011;20469;55.638;37.670;2022-07-23T14:24:04;5.70;;;5.10;;
34200;SDS011;20469;55.638;37.670;2022-07-23T14:26:32;7.68;;;5.50;;
34200;SDS011;20469;55.638;37.670;2022-07-23T14:28:59;7.90;;;5.60;;
34200;SDS011;20469;55.638;37.670;2022-07-23T14:31:28;5.63;;;5.13;;
34200;SDS011;20469;55.638;37.670;2022-07-23T14:33:55;6.68;;;5.30;;
34200;SDS011;20469;55.638;37.670;2022-07-23T14:36:23;6.53;;;5.57;;
34200;SDS011;20469;55.638;37.670;2022-07-23T14:38:51;6.90;;;5.20;;
34200;SDS011;20469;55.638;37.670;2022-07-23T14:41:19;6.68;;;5.57;;
34200;SDS011;20469;55.638;37.670;2022-07-23T14:44:03;7.85;;;5.70;;
34200;SDS011;20469;55.638;37.670;2022-07-23T14:46:31;7.07;;;5.50;;
34200;SDS011;20469;55.638;37.670;2022-07-23T14:48:59;7.50;;;6.00;;
34200;SDS011;20469;55.638;37.670;2022-07-23T14:51:26;12.95;;;6.07;;
34200;SDS011;20469;55.638;37.670;2022-07-23T14:53:54;7.38;;;5.93;;
34200;SDS011;20469;55.638;37.670;2022-07-23T14:56:21;9.27;;;6.43;;
34200;SDS011;20469;55.638;37.670;2022-07-23T14:58:48;9.82;;;6.68;;
34200;SDS011;20469;55.638;37.670;2022-07-23T15:01:16;8.63;;;6.70;;
34200;SDS011;20469;55.638;37.670;2022-07-23T15:03:43;7.05;;;5.97;;
34200;SDS011;20469;55.638;37.670;2022-07-23T15:06:11;7.70;;;6.53;;
34200;SDS011;20469;55.638;37.670;2022-07-23T15:08:40;8.88;;;6.03;;
34200;SDS011;20469;55.638;37.670;2022-07-23T15:11:07;8.20;;;6.32;;
34200;SDS011;20469;55.638;37.670;2022-07-23T15:13:36;9.43;;;6.38;;
34200;SDS011;20469;55.638;37.670;2022-07-23T15:16:08;8.57;;;6.22;;
34200;SDS011;20469;55.638;37.670;2022-07-23T15:18:36;10.90;;;6.65;;
34200;SDS011;20469;55.638;37.670;2022-07-23T15:21:03;6.85;;;5.60;;
34200;SDS011;20469;55.638;37.670;2022-07-23T15:23:33;7.63;;;6.43;;
34200;SDS011;20469;55.638;37.670;2022-07-23T15:26:01;9.15;;;6.55;;
34200;SDS011;20469;55.638;37.670;2022-07-23T15:28:29;8.35;;;6.32;;
34200;SDS011;20469;55.638;37.670;2022-07-23T15:30:56;8.90;;;6.00;;
34200;SDS011;20469;55.638;37.670;2022-07-23T15:33:24;9.60;;;6.18;;